createdAt,value
2023-04-16T00:00:06.837Z,72.56
2023-04-16T00:00:27.922Z,72.53
2023-04-16T00:00:48.998Z,72.52
2023-04-16T00:01:10.052Z,72.54
2023-04-16T00:01:31.115Z,72.55
2023-04-16T00:01:52.261Z,72.60
2023-04-16T00:02:13.478Z,72.64
2023-04-16T00:02:34.751Z,72.62
2023-04-16T00:02:56.134Z,72.60
2023-04-16T00:03:17.618Z,72.62
2023-04-16T00:03:39.089Z,72.65
2023-04-16T00:04:00.670Z,72.67
2023-04-16T00:04:22.009Z,72.66
2023-04-16T00:04:43.359Z,72.59
2023-04-16T00:05:04.527Z,72.58
2023-04-16T00:05:25.607Z,72.57
2023-04-16T00:05:46.715Z,72.57
2023-04-16T00:06:07.766Z,72.54
2023-04-16T00:06:28.841Z,72.53
2023-04-16T00:06:49.932Z,72.48
2023-04-16T00:07:10.949Z,72.54
2023-04-16T00:07:32.012Z,72.50
2023-04-16T00:07:53.072Z,72.49
2023-04-16T00:08:14.127Z,72.48
2023-04-16T00:08:35.197Z,72.50
2023-04-16T00:08:56.232Z,72.49
2023-04-16T00:09:17.295Z,72.40
2023-04-16T00:09:38.343Z,72.40
2023-04-16T00:09:59.413Z,72.40
2023-04-16T00:10:20.493Z,72.42
2023-04-16T00:10:41.573Z,72.43
2023-04-16T00:11:02.652Z,72.38
2023-04-16T00:11:23.753Z,72.43
2023-04-16T00:11:44.793Z,72.43
2023-04-16T00:12:05.839Z,72.39
2023-04-16T00:12:26.905Z,72.46
2023-04-16T00:12:48.003Z,72.47
2023-04-16T00:13:09.075Z,72.43
2023-04-16T00:13:30.128Z,72.44
2023-04-16T00:13:51.181Z,72.47
2023-04-16T00:14:12.264Z,72.48
2023-04-16T00:14:33.321Z,72.51
2023-04-16T00:14:54.365Z,72.46
2023-04-16T00:15:15.423Z,72.47
2023-04-16T00:15:36.484Z,72.47
2023-04-16T00:15:57.729Z,72.42
2023-04-16T00:16:18.904Z,72.40
2023-04-16T00:16:39.965Z,72.39
2023-04-16T00:17:01.097Z,72.42
2023-04-16T00:17:22.185Z,72.45
2023-04-16T00:17:43.264Z,72.44
2023-04-16T00:18:04.311Z,72.44
2023-04-16T00:18:25.348Z,72.47
2023-04-16T00:18:46.401Z,72.46
2023-04-16T00:19:07.709Z,72.49
2023-04-16T00:19:28.848Z,72.49
2023-04-16T00:19:49.910Z,72.47
2023-04-16T00:20:10.952Z,72.45
2023-04-16T00:20:32.014Z,72.42
2023-04-16T00:20:53.066Z,72.37
2023-04-16T00:21:14.356Z,72.35
2023-04-16T00:21:35.420Z,72.34
2023-04-16T00:21:56.465Z,72.37
2023-04-16T00:22:17.528Z,72.39
2023-04-16T00:22:38.638Z,72.41
2023-04-16T00:22:59.697Z,72.38
2023-04-16T00:23:20.745Z,72.36
2023-04-16T00:23:41.802Z,72.31
2023-04-16T00:24:02.857Z,72.26
2023-04-16T00:24:23.917Z,72.25
2023-04-16T00:24:44.984Z,72.20
2023-04-16T00:25:06.051Z,72.22
2023-04-16T00:25:27.144Z,72.29
2023-04-16T00:25:48.194Z,72.30
2023-04-16T00:26:09.249Z,72.35
2023-04-16T00:26:30.362Z,72.31
2023-04-16T00:26:51.582Z,72.29
2023-04-16T00:27:12.719Z,72.30
2023-04-16T00:27:33.795Z,72.29
2023-04-16T00:27:54.805Z,72.30
2023-04-16T00:28:15.873Z,72.27
2023-04-16T00:28:36.929Z,72.34
2023-04-16T00:28:57.983Z,72.36
2023-04-16T00:29:19.056Z,72.31
2023-04-16T00:29:40.140Z,72.30
2023-04-16T00:30:01.212Z,72.29
2023-04-16T00:30:22.405Z,72.33
2023-04-16T00:30:43.483Z,72.29
2023-04-16T00:31:04.527Z,72.36
2023-04-16T00:31:25.601Z,72.27
2023-04-16T00:31:46.867Z,72.26
2023-04-16T00:32:07.933Z,72.28
2023-04-16T00:32:28.997Z,72.29
2023-04-16T00:32:50.118Z,72.27
2023-04-16T00:33:11.177Z,72.34
2023-04-16T00:33:32.229Z,72.33
2023-04-16T00:33:53.275Z,72.34
2023-04-16T00:34:14.330Z,72.35
2023-04-16T00:34:35.386Z,72.36
2023-04-16T00:34:56.460Z,72.36
2023-04-16T00:35:17.517Z,72.38
2023-04-16T00:35:38.604Z,72.37
2023-04-16T00:35:59.707Z,72.34
2023-04-16T00:36:20.746Z,72.31
2023-04-16T00:36:41.782Z,72.34
2023-04-16T00:37:02.864Z,72.32
2023-04-16T00:37:23.966Z,72.29
2023-04-16T00:37:45.059Z,72.24
2023-04-16T00:38:06.089Z,72.25
2023-04-16T00:38:27.157Z,72.28
2023-04-16T00:38:48.217Z,72.24
2023-04-16T00:39:09.917Z,72.23
2023-04-16T00:39:31.032Z,72.18
2023-04-16T00:39:52.094Z,72.23
2023-04-16T00:40:13.196Z,72.28
2023-04-16T00:40:34.209Z,72.29
2023-04-16T00:40:55.284Z,72.33
2023-04-16T00:41:16.357Z,72.40
2023-04-16T00:41:37.506Z,72.42
2023-04-16T00:41:58.528Z,72.40
2023-04-16T00:42:19.798Z,72.39
2023-04-16T00:42:41.041Z,72.32
2023-04-16T00:43:02.116Z,72.35
2023-04-16T00:43:23.174Z,72.34
2023-04-16T00:43:44.258Z,72.29
2023-04-16T00:44:05.287Z,72.33
2023-04-16T00:44:26.354Z,72.33
2023-04-16T00:44:47.403Z,72.34
2023-04-16T00:45:08.471Z,72.30
2023-04-16T00:45:29.537Z,72.30
2023-04-16T00:45:50.675Z,72.22
2023-04-16T00:46:11.761Z,72.20
2023-04-16T00:46:32.864Z,72.21
2023-04-16T00:46:54.039Z,72.24
2023-04-16T00:47:15.132Z,72.26
2023-04-16T00:47:36.405Z,72.20
2023-04-16T00:47:59.945Z,72.17
2023-04-16T00:48:21.532Z,72.18
2023-04-16T00:48:42.568Z,72.17
2023-04-16T00:49:03.628Z,72.18
2023-04-16T00:49:24.695Z,72.15
2023-04-16T00:49:45.750Z,72.22
2023-04-16T00:50:06.810Z,72.23
2023-04-16T00:50:27.873Z,72.26
2023-04-16T00:50:48.927Z,72.23
2023-04-16T00:51:10.047Z,72.21
2023-04-16T00:51:31.063Z,72.13
2023-04-16T00:51:52.145Z,72.13
2023-04-16T00:52:13.228Z,72.17
2023-04-16T00:52:34.257Z,72.11
2023-04-16T00:52:55.339Z,72.13
2023-04-16T00:53:16.476Z,72.13
2023-04-16T00:53:37.507Z,72.06
2023-04-16T00:53:58.560Z,72.04
2023-04-16T00:54:19.654Z,72.02
2023-04-16T00:54:40.713Z,72.01
2023-04-16T00:55:01.771Z,72.00
2023-04-16T00:55:22.823Z,71.98
2023-04-16T00:55:43.874Z,71.98
2023-04-16T00:56:04.941Z,71.97
2023-04-16T00:56:26.000Z,71.94
2023-04-16T00:56:47.073Z,71.94
2023-04-16T00:57:08.147Z,71.98
2023-04-16T00:57:29.183Z,72.00
2023-04-16T00:57:50.231Z,71.98
2023-04-16T00:58:11.333Z,71.94
2023-04-16T00:58:32.586Z,71.96
2023-04-16T00:58:54.356Z,71.92
2023-04-16T00:59:15.391Z,71.95
2023-04-16T00:59:36.437Z,71.90
2023-04-16T00:59:57.510Z,71.89
2023-04-16T01:00:18.618Z,71.85
2023-04-16T01:00:39.654Z,71.84
2023-04-16T01:01:00.713Z,71.87
2023-04-16T01:01:21.816Z,71.87
2023-04-16T01:01:42.929Z,71.87
2023-04-16T01:02:04.062Z,71.88
2023-04-16T01:02:25.548Z,71.86
2023-04-16T01:02:47.056Z,71.86
2023-04-16T01:03:08.314Z,71.82
2023-04-16T01:03:29.530Z,71.85
2023-04-16T01:03:50.841Z,71.83
2023-04-16T01:04:12.109Z,71.87
2023-04-16T01:04:33.286Z,71.88
2023-04-16T01:04:54.432Z,71.81
2023-04-16T01:05:15.539Z,71.86
2023-04-16T01:05:36.564Z,71.87
2023-04-16T01:05:57.650Z,71.88
2023-04-16T01:06:18.728Z,71.86
2023-04-16T01:06:39.784Z,71.91
2023-04-16T01:07:00.995Z,71.93
2023-04-16T01:07:22.034Z,71.88
2023-04-16T01:07:43.104Z,71.83
2023-04-16T01:08:04.152Z,71.77
2023-04-16T01:08:25.215Z,71.71
2023-04-16T01:08:46.311Z,71.70
2023-04-16T01:09:07.716Z,71.68
2023-04-16T01:09:28.946Z,71.69
2023-04-16T01:09:50.001Z,71.72
2023-04-16T01:10:11.084Z,71.73
2023-04-16T01:10:32.115Z,71.71
2023-04-16T01:10:53.180Z,71.66
2023-04-16T01:11:14.253Z,71.73
2023-04-16T01:11:35.320Z,71.72
2023-04-16T01:11:56.370Z,71.75
2023-04-16T01:12:17.414Z,71.75
2023-04-16T01:12:38.504Z,71.71
2023-04-16T01:12:59.538Z,71.69
2023-04-16T01:13:20.590Z,71.70
2023-04-16T01:13:41.656Z,71.64
2023-04-16T01:14:02.795Z,71.63
2023-04-16T01:14:23.873Z,71.64
2023-04-16T01:14:44.914Z,71.59
2023-04-16T01:15:06.005Z,71.59
2023-04-16T01:15:27.039Z,71.60
2023-04-16T01:15:48.147Z,71.65
2023-04-16T01:16:09.290Z,71.57
2023-04-16T01:16:30.457Z,71.61
2023-04-16T01:16:51.481Z,71.62
2023-04-16T01:17:12.532Z,71.61
2023-04-16T01:17:33.710Z,71.59
2023-04-16T01:17:54.830Z,71.59
2023-04-16T01:18:15.864Z,71.52
2023-04-16T01:18:36.933Z,71.56
2023-04-16T01:18:58.042Z,71.51
2023-04-16T01:19:19.115Z,71.54
2023-04-16T01:19:40.202Z,71.55
2023-04-16T01:20:01.321Z,71.59
2023-04-16T01:20:22.459Z,71.59
2023-04-16T01:20:43.518Z,71.62
2023-04-16T01:21:04.627Z,71.56
2023-04-16T01:21:25.712Z,71.61
2023-04-16T01:21:46.770Z,71.63
2023-04-16T01:22:07.860Z,71.59
2023-04-16T01:22:28.941Z,71.60
2023-04-16T01:22:49.956Z,71.58
2023-04-16T01:23:11.056Z,71.58
2023-04-16T01:23:32.080Z,71.54
2023-04-16T01:23:53.144Z,71.50
2023-04-16T01:24:14.223Z,71.49
2023-04-16T01:24:35.461Z,71.53
2023-04-16T01:24:56.719Z,71.49
2023-04-16T01:25:17.769Z,71.51
2023-04-16T01:25:38.852Z,71.54
2023-04-16T01:25:59.912Z,71.48
2023-04-16T01:26:21.001Z,71.50
2023-04-16T01:26:42.029Z,71.54
2023-04-16T01:27:03.120Z,71.51
2023-04-16T01:27:24.164Z,71.50
2023-04-16T01:27:45.222Z,71.55
2023-04-16T01:28:06.282Z,71.49
2023-04-16T01:28:27.336Z,71.53
2023-04-16T01:28:48.386Z,71.49
2023-04-16T01:29:09.739Z,71.45
2023-04-16T01:29:30.940Z,71.44
2023-04-16T01:29:52.188Z,71.42
2023-04-16T01:30:13.431Z,71.39
2023-04-16T01:30:34.498Z,71.40
2023-04-16T01:30:55.685Z,71.37
2023-04-16T01:31:16.755Z,71.39
2023-04-16T01:31:37.855Z,71.36
2023-04-16T01:31:58.887Z,71.32
2023-04-16T01:32:19.989Z,71.33
2023-04-16T01:32:41.123Z,71.37
2023-04-16T01:33:02.303Z,71.37
2023-04-16T01:33:23.385Z,71.39
2023-04-16T01:33:44.439Z,71.43
2023-04-16T01:34:05.511Z,71.45
2023-04-16T01:34:26.576Z,71.48
2023-04-16T01:34:47.630Z,71.51
2023-04-16T01:35:08.743Z,71.56
2023-04-16T01:35:29.808Z,71.58
2023-04-16T01:35:50.851Z,71.52
2023-04-16T01:36:11.901Z,71.51
2023-04-16T01:36:32.977Z,71.54
2023-04-16T01:36:54.047Z,71.58
2023-04-16T01:37:15.100Z,71.46
2023-04-16T01:37:36.173Z,71.40
2023-04-16T01:37:57.213Z,71.36
2023-04-16T01:38:18.276Z,71.37
2023-04-16T01:38:39.324Z,71.36
2023-04-16T01:39:00.412Z,71.34
2023-04-16T01:39:21.475Z,71.33
2023-04-16T01:39:42.532Z,71.23
2023-04-16T01:40:03.592Z,71.31
2023-04-16T01:40:24.686Z,71.28
2023-04-16T01:40:45.775Z,71.27
2023-04-16T01:41:06.851Z,71.24
2023-04-16T01:41:27.914Z,71.24
2023-04-16T01:41:48.954Z,71.23
2023-04-16T01:42:10.031Z,71.23
2023-04-16T01:42:31.103Z,71.21
2023-04-16T01:42:52.129Z,71.18
2023-04-16T01:43:13.222Z,71.19
2023-04-16T01:43:34.253Z,71.16
2023-04-16T01:43:55.359Z,71.20
2023-04-16T01:44:16.427Z,71.21
2023-04-16T01:44:37.481Z,71.21
2023-04-16T01:44:58.535Z,71.25
2023-04-16T01:45:19.630Z,71.24
2023-04-16T01:45:40.852Z,71.26
2023-04-16T01:46:02.114Z,71.27
2023-04-16T01:46:23.165Z,71.25
2023-04-16T01:46:44.298Z,71.26
2023-04-16T01:47:05.357Z,71.30
2023-04-16T01:47:26.479Z,71.31
2023-04-16T01:47:47.619Z,71.31
2023-04-16T01:48:08.657Z,71.26
2023-04-16T01:48:29.710Z,71.27
2023-04-16T01:48:50.778Z,71.28
2023-04-16T01:49:12.018Z,71.29
2023-04-16T01:49:33.238Z,71.22
2023-04-16T01:49:54.291Z,71.21
2023-04-16T01:50:15.355Z,71.27
2023-04-16T01:50:36.403Z,71.23
2023-04-16T01:50:57.503Z,71.25
2023-04-16T01:51:18.753Z,71.24
2023-04-16T01:51:39.812Z,71.25
2023-04-16T01:52:00.944Z,71.22
2023-04-16T01:52:21.972Z,71.24
2023-04-16T01:52:43.040Z,71.25
2023-04-16T01:53:04.080Z,71.25
2023-04-16T01:53:25.212Z,71.23
2023-04-16T01:53:46.270Z,71.19
2023-04-16T01:54:07.316Z,71.20
2023-04-16T01:54:28.374Z,71.18
2023-04-16T01:54:49.480Z,71.21
2023-04-16T01:55:10.533Z,71.21
2023-04-16T01:55:31.601Z,71.23
2023-04-16T01:55:52.632Z,71.24
2023-04-16T01:56:13.702Z,71.29
2023-04-16T01:56:34.793Z,71.28
2023-04-16T01:56:55.876Z,71.35
2023-04-16T01:57:16.924Z,71.35
2023-04-16T01:57:37.962Z,71.36
2023-04-16T01:57:59.089Z,71.32
2023-04-16T01:58:20.122Z,71.31
2023-04-16T01:58:41.209Z,71.28
2023-04-16T01:59:02.257Z,71.17
2023-04-16T01:59:23.323Z,71.16
2023-04-16T01:59:44.426Z,71.15
2023-04-16T02:00:05.469Z,71.13
2023-04-16T02:00:26.516Z,71.14
2023-04-16T02:00:47.622Z,71.18
2023-04-16T02:01:08.753Z,71.24
2023-04-16T02:01:29.900Z,71.20
2023-04-16T02:01:51.043Z,71.25
2023-04-16T02:02:12.137Z,71.18
2023-04-16T02:02:33.289Z,71.20
2023-04-16T02:02:54.544Z,71.20
2023-04-16T02:03:15.829Z,71.20
2023-04-16T02:03:37.105Z,71.23
2023-04-16T02:03:58.392Z,71.25
2023-04-16T02:04:19.578Z,71.19
2023-04-16T02:04:40.624Z,71.22
2023-04-16T02:05:01.686Z,71.22
2023-04-16T02:05:22.740Z,71.21
2023-04-16T02:05:43.818Z,71.15
2023-04-16T02:06:04.884Z,71.16
2023-04-16T02:06:25.946Z,71.20
2023-04-16T02:06:47.246Z,71.14
2023-04-16T02:07:08.481Z,71.13
2023-04-16T02:07:29.577Z,71.09
2023-04-16T02:07:50.620Z,71.08
2023-04-16T02:08:11.678Z,71.14
2023-04-16T02:08:32.779Z,71.10
2023-04-16T02:08:53.815Z,71.11
2023-04-16T02:09:14.874Z,71.12
2023-04-16T02:09:35.964Z,71.12
2023-04-16T02:09:57.033Z,71.08
2023-04-16T02:10:18.109Z,71.11
2023-04-16T02:10:39.154Z,71.17
2023-04-16T02:11:00.204Z,71.18
2023-04-16T02:11:21.280Z,71.16
2023-04-16T02:11:42.361Z,71.22
2023-04-16T02:12:03.577Z,71.18
2023-04-16T02:12:24.848Z,71.18
2023-04-16T02:12:45.923Z,71.21
2023-04-16T02:13:06.971Z,71.14
2023-04-16T02:13:28.015Z,71.16
2023-04-16T02:13:49.116Z,71.16
2023-04-16T02:14:10.169Z,71.19
2023-04-16T02:14:31.239Z,71.20
2023-04-16T02:14:52.281Z,71.21
2023-04-16T02:15:13.348Z,71.20
2023-04-16T02:15:34.403Z,71.25
2023-04-16T02:15:55.475Z,71.32
2023-04-16T02:16:16.616Z,71.29
2023-04-16T02:16:37.715Z,71.32
2023-04-16T02:16:58.739Z,71.31
2023-04-16T02:17:20.099Z,71.32
2023-04-16T02:17:41.191Z,71.26
2023-04-16T02:18:02.284Z,71.37
2023-04-16T02:18:23.381Z,71.33
2023-04-16T02:18:44.447Z,71.33
2023-04-16T02:19:05.562Z,71.34
2023-04-16T02:19:26.600Z,71.34
2023-04-16T02:19:47.656Z,71.30
2023-04-16T02:20:08.710Z,71.30
2023-04-16T02:20:29.778Z,71.31
2023-04-16T02:20:50.838Z,71.27
2023-04-16T02:21:11.903Z,71.24
2023-04-16T02:21:32.975Z,71.22
2023-04-16T02:21:54.009Z,71.24
2023-04-16T02:22:15.135Z,71.21
2023-04-16T02:22:36.389Z,71.22
2023-04-16T02:22:57.629Z,71.26
2023-04-16T02:23:18.697Z,71.26
2023-04-16T02:23:39.764Z,71.29
2023-04-16T02:24:00.817Z,71.29
2023-04-16T02:24:21.884Z,71.30
2023-04-16T02:24:42.936Z,71.26
2023-04-16T02:25:03.994Z,71.29
2023-04-16T02:25:25.099Z,71.30
2023-04-16T02:25:46.148Z,71.32
2023-04-16T02:26:07.194Z,71.29
2023-04-16T02:26:28.271Z,71.36
2023-04-16T02:26:49.324Z,71.39
2023-04-16T02:27:10.389Z,71.40
2023-04-16T02:27:31.481Z,71.39
2023-04-16T02:27:52.564Z,71.37
2023-04-16T02:28:13.645Z,71.31
2023-04-16T02:28:34.729Z,71.35
2023-04-16T02:28:55.775Z,71.32
2023-04-16T02:29:16.838Z,71.39
2023-04-16T02:29:37.895Z,71.38
2023-04-16T02:29:58.957Z,71.29
2023-04-16T02:30:20.038Z,71.32
2023-04-16T02:30:41.096Z,71.33
2023-04-16T02:31:02.264Z,71.33
2023-04-16T02:31:23.443Z,71.30
2023-04-16T02:31:44.636Z,71.28
2023-04-16T02:32:05.737Z,71.24
2023-04-16T02:32:26.924Z,71.26
2023-04-16T02:32:48.024Z,71.20
2023-04-16T02:33:09.245Z,71.23
2023-04-16T02:33:30.522Z,71.25
2023-04-16T02:33:51.589Z,71.22
2023-04-16T02:34:12.661Z,71.17
2023-04-16T02:34:33.705Z,71.17
2023-04-16T02:34:54.782Z,71.21
2023-04-16T02:35:15.818Z,71.20
2023-04-16T02:35:36.946Z,71.22
2023-04-16T02:35:57.989Z,71.21
2023-04-16T02:36:19.055Z,71.24
2023-04-16T02:36:40.100Z,71.18
2023-04-16T02:37:01.169Z,71.19
2023-04-16T02:37:22.223Z,71.19
2023-04-16T02:37:43.279Z,71.18
2023-04-16T02:38:04.351Z,71.20
2023-04-16T02:38:25.445Z,71.15
2023-04-16T02:38:46.544Z,71.19
2023-04-16T02:39:07.844Z,71.16
2023-04-16T02:39:28.991Z,71.16
2023-04-16T02:39:50.053Z,71.14
2023-04-16T02:40:11.126Z,71.17
2023-04-16T02:40:32.192Z,71.16
2023-04-16T02:40:53.235Z,71.21
2023-04-16T02:41:14.290Z,71.16
2023-04-16T02:41:35.358Z,71.19
2023-04-16T02:41:56.404Z,71.18
2023-04-16T02:42:17.472Z,71.19
2023-04-16T02:42:38.545Z,71.18
2023-04-16T02:42:59.604Z,71.17
2023-04-16T02:43:20.642Z,71.13
2023-04-16T02:43:41.901Z,71.13
2023-04-16T02:44:02.975Z,71.06
2023-04-16T02:44:24.047Z,71.05
2023-04-16T02:44:45.086Z,71.01
2023-04-16T02:45:06.139Z,71.02
2023-04-16T02:45:27.214Z,70.98
2023-04-16T02:45:48.289Z,71.04
2023-04-16T02:46:09.442Z,70.99
2023-04-16T02:46:30.581Z,70.97
2023-04-16T02:46:51.835Z,70.97
2023-04-16T02:47:12.896Z,70.98
2023-04-16T02:47:33.979Z,70.97
2023-04-16T02:47:55.087Z,70.98
2023-04-16T02:48:16.168Z,71.03
2023-04-16T02:48:37.226Z,70.97
2023-04-16T02:48:58.325Z,70.98
2023-04-16T02:49:19.446Z,71.00
2023-04-16T02:49:40.463Z,70.99
2023-04-16T02:50:01.550Z,70.95
2023-04-16T02:50:22.610Z,70.90
2023-04-16T02:50:43.651Z,70.96
2023-04-16T02:51:04.712Z,70.98
2023-04-16T02:51:25.796Z,70.94
2023-04-16T02:51:46.837Z,70.98
2023-04-16T02:52:07.874Z,70.93
2023-04-16T02:52:28.960Z,70.96
2023-04-16T02:52:49.995Z,70.91
2023-04-16T02:53:11.062Z,70.91
2023-04-16T02:53:32.100Z,70.96
2023-04-16T02:53:53.192Z,70.88
2023-04-16T02:54:14.289Z,70.87
2023-04-16T02:54:35.540Z,70.88
2023-04-16T02:54:56.585Z,70.87
2023-04-16T02:55:17.646Z,70.87
2023-04-16T02:55:38.730Z,70.84
2023-04-16T02:55:59.811Z,70.88
2023-04-16T02:56:20.862Z,70.94
2023-04-16T02:56:41.915Z,70.93
2023-04-16T02:57:02.962Z,70.94
2023-04-16T02:57:24.031Z,70.97
2023-04-16T02:57:45.102Z,70.94
2023-04-16T02:58:06.221Z,70.85
2023-04-16T02:58:27.242Z,70.89
2023-04-16T02:58:48.310Z,70.86
2023-04-16T02:59:09.511Z,70.87
2023-04-16T02:59:30.841Z,70.83
2023-04-16T02:59:52.084Z,70.83
2023-04-16T03:00:13.158Z,70.86
2023-04-16T03:00:34.196Z,70.89
2023-04-16T03:00:55.357Z,70.93
2023-04-16T03:01:16.488Z,70.97
2023-04-16T03:01:37.621Z,70.97
2023-04-16T03:01:58.768Z,70.95
2023-04-16T03:02:19.862Z,70.97
2023-04-16T03:02:41.070Z,71.02
2023-04-16T03:03:02.172Z,70.97
2023-04-16T03:03:23.248Z,70.99
2023-04-16T03:03:44.353Z,71.00
2023-04-16T03:04:05.422Z,70.97
2023-04-16T03:04:26.536Z,70.99
2023-04-16T03:04:47.632Z,70.98
2023-04-16T03:05:08.692Z,70.99
2023-04-16T03:05:29.757Z,70.96
2023-04-16T03:05:50.825Z,70.99
2023-04-16T03:06:11.864Z,71.02
2023-04-16T03:06:32.943Z,70.97
2023-04-16T03:06:53.997Z,70.97
2023-04-16T03:07:15.050Z,70.88
2023-04-16T03:07:36.151Z,70.91
2023-04-16T03:07:57.206Z,70.84
2023-04-16T03:08:18.267Z,70.90
2023-04-16T03:08:39.326Z,70.90
2023-04-16T03:09:00.394Z,70.92
2023-04-16T03:09:21.447Z,70.91
2023-04-16T03:09:42.520Z,70.91
2023-04-16T03:10:03.695Z,70.89
2023-04-16T03:10:24.784Z,70.85
2023-04-16T03:10:45.851Z,70.85
2023-04-16T03:11:06.945Z,70.85
2023-04-16T03:11:27.978Z,70.84
2023-04-16T03:11:49.070Z,70.89
2023-04-16T03:12:10.131Z,70.89
2023-04-16T03:12:31.183Z,70.85
2023-04-16T03:12:52.275Z,70.82
2023-04-16T03:13:13.296Z,70.84
2023-04-16T03:13:34.351Z,70.87
2023-04-16T03:13:55.491Z,70.88
2023-04-16T03:14:16.516Z,70.87
2023-04-16T03:14:37.580Z,70.91
2023-04-16T03:14:58.633Z,70.88
2023-04-16T03:15:19.882Z,70.87
2023-04-16T03:15:41.010Z,70.89
2023-04-16T03:16:02.179Z,70.84
2023-04-16T03:16:23.519Z,70.90
2023-04-16T03:16:44.621Z,70.89
2023-04-16T03:17:05.686Z,70.89
2023-04-16T03:17:26.770Z,70.89
2023-04-16T03:17:47.837Z,70.87
2023-04-16T03:18:08.891Z,70.84
2023-04-16T03:18:29.971Z,70.91
2023-04-16T03:18:51.096Z,70.89
2023-04-16T03:19:12.356Z,70.92
2023-04-16T03:19:33.446Z,70.88
2023-04-16T03:19:54.526Z,70.87
2023-04-16T03:20:15.580Z,70.84
2023-04-16T03:20:36.700Z,70.84
2023-04-16T03:20:57.798Z,70.84
2023-04-16T03:21:18.862Z,70.85
2023-04-16T03:21:39.977Z,70.82
2023-04-16T03:22:01.001Z,70.92
2023-04-16T03:22:22.057Z,70.94
2023-04-16T03:22:43.113Z,70.98
2023-04-16T03:23:04.157Z,70.96
2023-04-16T03:23:25.230Z,70.94
2023-04-16T03:23:46.275Z,70.93
2023-04-16T03:24:07.331Z,70.92
2023-04-16T03:24:28.397Z,70.96
2023-04-16T03:24:49.486Z,70.96
2023-04-16T03:25:10.509Z,70.90
2023-04-16T03:25:31.578Z,70.90
2023-04-16T03:25:52.681Z,70.90
2023-04-16T03:26:13.945Z,70.88
2023-04-16T03:26:34.997Z,70.88
2023-04-16T03:26:56.049Z,70.91
2023-04-16T03:27:17.112Z,70.88
2023-04-16T03:27:38.163Z,70.83
2023-04-16T03:27:59.273Z,70.88
2023-04-16T03:28:20.300Z,70.93
2023-04-16T03:28:41.359Z,70.97
2023-04-16T03:29:02.413Z,70.99
2023-04-16T03:29:23.481Z,70.91
2023-04-16T03:29:44.546Z,70.91
2023-04-16T03:30:05.578Z,70.84
2023-04-16T03:30:26.635Z,70.81
2023-04-16T03:30:47.789Z,70.81
2023-04-16T03:31:09.052Z,70.78
2023-04-16T03:31:30.335Z,70.80
2023-04-16T03:31:51.382Z,70.78
2023-04-16T03:32:12.439Z,70.80
2023-04-16T03:32:33.578Z,70.81
2023-04-16T03:32:54.631Z,70.83
2023-04-16T03:33:15.676Z,70.72
2023-04-16T03:33:36.756Z,70.77
2023-04-16T03:33:57.817Z,70.80
2023-04-16T03:34:18.859Z,70.76
2023-04-16T03:34:39.949Z,70.84
2023-04-16T03:35:00.996Z,70.88
2023-04-16T03:35:22.062Z,70.85
2023-04-16T03:35:43.143Z,70.84
2023-04-16T03:36:04.195Z,70.83
2023-04-16T03:36:25.297Z,70.85
2023-04-16T03:36:46.358Z,70.85
2023-04-16T03:37:07.453Z,70.92
2023-04-16T03:37:28.486Z,70.94
2023-04-16T03:37:49.564Z,70.97
2023-04-16T03:38:10.661Z,70.96
2023-04-16T03:38:31.692Z,70.96
2023-04-16T03:38:52.756Z,71.00
2023-04-16T03:39:13.804Z,71.01
2023-04-16T03:39:34.868Z,71.03
2023-04-16T03:39:55.977Z,71.03
2023-04-16T03:40:16.993Z,71.05
2023-04-16T03:40:38.060Z,71.09
2023-04-16T03:40:59.129Z,71.17
2023-04-16T03:41:20.198Z,71.21
2023-04-16T03:41:41.349Z,71.26
2023-04-16T03:42:02.592Z,71.20
2023-04-16T03:42:23.663Z,71.21
2023-04-16T03:42:44.696Z,71.19
2023-04-16T03:43:05.775Z,71.16
2023-04-16T03:43:26.814Z,71.13
2023-04-16T03:43:47.870Z,71.13
2023-04-16T03:44:08.942Z,71.14
2023-04-16T03:44:30.028Z,71.20
2023-04-16T03:44:51.084Z,71.22
2023-04-16T03:45:12.132Z,71.30
2023-04-16T03:45:33.193Z,71.30
2023-04-16T03:45:54.248Z,71.34
2023-04-16T03:46:15.293Z,71.29
2023-04-16T03:46:36.378Z,71.32
2023-04-16T03:46:57.506Z,71.28
2023-04-16T03:47:18.646Z,71.28
2023-04-16T03:47:39.676Z,71.26
2023-04-16T03:48:00.711Z,71.24
2023-04-16T03:48:21.776Z,71.27
2023-04-16T03:48:42.835Z,71.26
2023-04-16T03:49:03.865Z,71.30
2023-04-16T03:49:24.928Z,71.31
2023-04-16T03:49:46.005Z,71.29
2023-04-16T03:50:07.023Z,71.31
2023-04-16T03:50:28.094Z,71.35
2023-04-16T03:50:49.167Z,71.34
2023-04-16T03:51:10.223Z,71.37
2023-04-16T03:51:31.276Z,71.37
2023-04-16T03:51:52.336Z,71.41
2023-04-16T03:52:13.414Z,71.50
2023-04-16T03:52:34.597Z,71.55
2023-04-16T03:52:55.660Z,71.63
2023-04-16T03:53:16.708Z,71.65
2023-04-16T03:53:37.753Z,71.57
2023-04-16T03:53:58.808Z,71.57
2023-04-16T03:54:22.445Z,71.60
2023-04-16T03:54:43.898Z,71.55
2023-04-16T03:55:04.986Z,71.55
2023-04-16T03:55:26.011Z,71.61
2023-04-16T03:55:47.074Z,71.59
2023-04-16T03:56:08.141Z,71.54
2023-04-16T03:56:29.193Z,71.56
2023-04-16T03:56:50.319Z,71.63
2023-04-16T03:57:11.382Z,71.61
2023-04-16T03:57:32.476Z,71.59
2023-04-16T03:57:53.560Z,71.63
2023-04-16T03:58:14.664Z,71.64
2023-04-16T03:58:35.707Z,71.69
2023-04-16T03:58:56.764Z,71.69
2023-04-16T03:59:17.827Z,71.69
2023-04-16T03:59:38.880Z,71.70
2023-04-16T03:59:59.956Z,71.76
2023-04-16T04:00:21.004Z,71.75
2023-04-16T04:00:42.136Z,71.84
2023-04-16T04:01:03.199Z,71.87
2023-04-16T04:01:24.242Z,71.94
2023-04-16T04:01:45.315Z,71.94
2023-04-16T04:02:06.458Z,72.01
2023-04-16T04:02:27.693Z,72.03
2023-04-16T04:02:49.306Z,71.99
2023-04-16T04:03:10.672Z,72.02
2023-04-16T04:03:32.082Z,71.99
2023-04-16T04:03:53.378Z,72.01
2023-04-16T04:04:14.587Z,72.09
2023-04-16T04:04:35.815Z,72.15
2023-04-16T04:04:56.918Z,72.17
2023-04-16T04:05:17.966Z,72.26
2023-04-16T04:05:39.048Z,72.34
2023-04-16T04:06:00.133Z,72.33
2023-04-16T04:06:21.201Z,72.27
2023-04-16T04:06:42.299Z,72.15
2023-04-16T04:07:03.342Z,72.08
2023-04-16T04:07:24.392Z,71.99
2023-04-16T04:07:45.445Z,71.93
2023-04-16T04:08:06.521Z,71.93
2023-04-16T04:08:27.618Z,71.98
2023-04-16T04:08:48.722Z,72.02
2023-04-16T04:09:09.947Z,71.96
2023-04-16T04:09:31.043Z,71.96
2023-04-16T04:09:52.095Z,71.97
2023-04-16T04:10:13.153Z,71.94
2023-04-16T04:10:34.200Z,71.94
2023-04-16T04:10:55.276Z,71.96
2023-04-16T04:11:16.336Z,72.02
2023-04-16T04:11:37.382Z,72.07
2023-04-16T04:11:58.490Z,72.06
2023-04-16T04:12:19.516Z,72.04
2023-04-16T04:12:40.580Z,72.11
2023-04-16T04:13:01.664Z,72.18
2023-04-16T04:13:23.054Z,72.25
2023-04-16T04:13:44.105Z,72.33
2023-04-16T04:14:05.188Z,72.36
2023-04-16T04:14:26.264Z,72.36
2023-04-16T04:14:47.309Z,72.39
2023-04-16T04:15:08.397Z,72.33
2023-04-16T04:15:29.450Z,72.41
2023-04-16T04:15:50.554Z,72.39
2023-04-16T04:16:11.653Z,72.37
2023-04-16T04:16:32.796Z,72.40
2023-04-16T04:16:53.892Z,72.38
2023-04-16T04:17:14.954Z,72.41
2023-04-16T04:17:36.035Z,72.44
2023-04-16T04:17:57.123Z,72.48
2023-04-16T04:18:18.152Z,72.56
2023-04-16T04:18:39.393Z,72.56
2023-04-16T04:19:00.679Z,72.59
2023-04-16T04:19:21.709Z,72.59
2023-04-16T04:19:54.362Z,72.68
2023-04-16T04:20:09.740Z,72.68
2023-04-16T04:20:30.824Z,72.60
2023-04-16T04:20:51.866Z,72.52
2023-04-16T04:21:12.931Z,72.51
2023-04-16T04:21:33.996Z,72.45
2023-04-16T04:21:55.057Z,72.45
2023-04-16T04:22:16.125Z,72.46
2023-04-16T04:22:37.192Z,72.45
2023-04-16T04:22:58.231Z,72.47
2023-04-16T04:23:19.267Z,72.51
2023-04-16T04:23:40.362Z,72.53
2023-04-16T04:24:01.497Z,72.59
2023-04-16T04:24:22.535Z,72.61
2023-04-16T04:24:43.571Z,72.61
2023-04-16T04:25:04.621Z,72.63
2023-04-16T04:25:25.695Z,72.57
2023-04-16T04:25:46.796Z,72.54
2023-04-16T04:26:07.976Z,72.53
2023-04-16T04:26:29.080Z,72.55
2023-04-16T04:26:50.117Z,72.50
2023-04-16T04:27:11.163Z,72.51
2023-04-16T04:27:32.224Z,72.53
2023-04-16T04:27:53.271Z,72.52
2023-04-16T04:28:14.330Z,72.51
2023-04-16T04:28:35.518Z,72.50
2023-04-16T04:28:56.705Z,72.48
2023-04-16T04:29:17.758Z,72.44
2023-04-16T04:29:38.810Z,72.39
2023-04-16T04:29:59.917Z,72.36
2023-04-16T04:30:20.960Z,72.38
2023-04-16T04:30:42.022Z,72.35
2023-04-16T04:31:03.077Z,72.34
2023-04-16T04:31:24.159Z,72.30
2023-04-16T04:31:45.245Z,72.30